createdAt,value
2017-05-15T00:00:09.916Z,8.7
2017-05-15T00:01:28.589Z,8.7
2017-05-15T00:02:47.290Z,8.6
2017-05-15T00:04:05.933Z,8.6
2017-05-15T00:05:24.579Z,8.6
2017-05-15T00:06:43.272Z,8.6
2017-05-15T00:08:01.959Z,8.6
2017-05-15T00:09:20.644Z,8.6
2017-05-15T00:10:39.315Z,8.6
2017-05-15T00:11:57.953Z,8.7
2017-05-15T00:13:16.620Z,8.7
2017-05-15T00:14:35.305Z,8.8
2017-05-15T00:15:53.971Z,8.8
2017-05-15T00:17:12.617Z,8.8
2017-05-15T00:18:31.259Z,8.8
2017-05-15T00:19:49.941Z,9
2017-05-15T00:21:08.580Z,9
2017-05-15T00:22:27.277Z,9.1
2017-05-15T00:23:45.964Z,9.3
2017-05-15T00:25:04.651Z,9.5
2017-05-15T00:26:23.385Z,9.7
2017-05-15T00:27:42.053Z,9.8
2017-05-15T00:29:00.752Z,10
2017-05-15T00:30:19.462Z,10.1
2017-05-15T00:31:38.152Z,10.2
2017-05-15T00:32:56.856Z,10.3
2017-05-15T00:34:15.546Z,10.3
2017-05-15T00:35:34.208Z,10.3
2017-05-15T00:36:52.865Z,10.3
2017-05-15T00:38:11.551Z,10.3
2017-05-15T00:39:30.237Z,10.3
2017-05-15T00:40:48.919Z,10.4
2017-05-15T00:42:07.575Z,10.4
2017-05-15T00:43:26.228Z,10.4
2017-05-15T00:44:44.892Z,10.4
2017-05-15T00:46:03.543Z,10.4
2017-05-15T00:47:22.202Z,10.4
2017-05-15T00:48:40.896Z,10.3
2017-05-15T00:49:59.561Z,10.3
2017-05-15T00:51:18.268Z,10.3
2017-05-15T00:52:36.925Z,10.3
2017-05-15T00:53:55.584Z,10.2
2017-05-15T00:55:14.249Z,10.2
2017-05-15T00:56:32.907Z,10.2
2017-05-15T00:57:51.571Z,10.2
2017-05-15T00:59:10.259Z,10.2
2017-05-15T01:00:29.030Z,10.2
2017-05-15T01:01:47.731Z,10.2
2017-05-15T01:03:06.443Z,10.3
2017-05-15T01:04:25.137Z,10.3
2017-05-15T01:05:43.821Z,10.3
2017-05-15T01:07:02.480Z,10.3
2017-05-15T01:08:21.137Z,10.3
2017-05-15T01:09:39.806Z,10.3
2017-05-15T01:10:58.516Z,10.3
2017-05-15T01:12:17.171Z,10.3
2017-05-15T01:13:35.830Z,10.3
2017-05-15T01:14:54.544Z,10.3
2017-05-15T01:16:13.257Z,10.3
2017-05-15T01:17:31.920Z,10.3
2017-05-15T01:18:50.585Z,10.3
2017-05-15T01:20:09.298Z,10.3
2017-05-15T01:21:27.954Z,10.3
2017-05-15T01:22:46.603Z,10.3
2017-05-15T01:24:05.307Z,10.2
2017-05-15T01:25:23.999Z,10.1
2017-05-15T01:26:42.688Z,10.1
2017-05-15T01:28:01.408Z,10
2017-05-15T01:29:20.109Z,10
2017-05-15T01:30:38.765Z,9.9
2017-05-15T01:31:57.426Z,9.8
2017-05-15T01:33:16.069Z,9.7
2017-05-15T01:34:34.708Z,9.7
2017-05-15T01:35:53.350Z,9.6
2017-05-15T01:37:12.019Z,9.5
2017-05-15T01:38:30.668Z,9.5
2017-05-15T01:39:49.329Z,9.4
2017-05-15T01:41:08.026Z,9.5
2017-05-15T01:42:26.706Z,9.5
2017-05-15T01:43:45.351Z,9.6
2017-05-15T01:45:04.020Z,9.6
2017-05-15T01:46:22.663Z,9.6
2017-05-15T01:47:41.376Z,9.7
2017-05-15T01:49:00.022Z,9.7
2017-05-15T01:50:18.705Z,9.7
2017-05-15T01:51:37.371Z,9.7
2017-05-15T01:52:56.038Z,9.7
2017-05-15T01:54:14.683Z,9.7
2017-05-15T01:55:33.323Z,9.6
2017-05-15T01:56:51.972Z,9.6
2017-05-15T01:58:10.613Z,9.6
2017-05-15T01:59:29.309Z,9.6
2017-05-15T02:00:47.977Z,9.6
2017-05-15T02:02:06.616Z,9.6
2017-05-15T02:03:25.297Z,9.5
2017-05-15T02:04:43.967Z,9.4
2017-05-15T02:06:02.626Z,9.3
2017-05-15T02:07:21.279Z,9.3
2017-05-15T02:08:39.952Z,9.2
2017-05-15T02:09:58.592Z,9.2
2017-05-15T02:11:17.287Z,9.2
2017-05-15T02:12:35.971Z,9.2
2017-05-15T02:13:54.650Z,9.2
2017-05-15T02:15:13.288Z,9.2
2017-05-15T02:16:31.928Z,9.1
2017-05-15T02:17:50.603Z,9
2017-05-15T02:19:09.302Z,8.9
2017-05-15T02:20:27.942Z,8.8
2017-05-15T02:21:46.589Z,8.7
2017-05-15T02:23:05.290Z,8.6
2017-05-15T02:24:24.008Z,8.5
2017-05-15T02:25:42.695Z,8.5
2017-05-15T02:27:01.378Z,8.5
2017-05-15T02:28:20.054Z,8.4
2017-05-15T02:29:38.718Z,8.4
2017-05-15T02:30:57.393Z,8.3
2017-05-15T02:32:16.064Z,8.3
2017-05-15T02:33:34.739Z,8.3
2017-05-15T02:34:53.414Z,8.3
2017-05-15T02:36:12.049Z,8.2
2017-05-15T02:37:30.687Z,8.2
2017-05-15T02:38:49.364Z,8.2
2017-05-15T02:40:08.030Z,8.2
2017-05-15T02:41:26.664Z,8.1
2017-05-15T02:42:45.307Z,8.1
2017-05-15T02:44:03.975Z,8.1
2017-05-15T02:45:22.676Z,8.1
2017-05-15T02:46:41.336Z,8
2017-05-15T02:47:59.978Z,8
2017-05-15T02:49:18.614Z,8.1
2017-05-15T02:50:37.337Z,8.1
2017-05-15T02:51:55.978Z,8.1
2017-05-15T02:53:14.620Z,8.1
2017-05-15T02:54:33.303Z,8
2017-05-15T02:55:51.965Z,8
2017-05-15T02:57:10.605Z,7.9
2017-05-15T02:58:29.278Z,7.9
2017-05-15T02:59:47.922Z,7.9
2017-05-15T03:01:06.561Z,7.8
2017-05-15T03:02:25.207Z,7.8
2017-05-15T03:03:43.893Z,7.9
2017-05-15T03:05:02.535Z,7.9
2017-05-15T03:06:21.215Z,7.9
2017-05-15T03:07:39.857Z,7.9
2017-05-15T03:08:58.540Z,8
2017-05-15T03:10:17.200Z,8
2017-05-15T03:11:35.834Z,7.9
2017-05-15T03:12:54.530Z,7.9
2017-05-15T03:14:13.178Z,7.8
2017-05-15T03:15:31.859Z,7.8
2017-05-15T03:16:50.553Z,7.9
2017-05-15T03:18:09.223Z,7.8
2017-05-15T03:19:27.871Z,7.8
2017-05-15T03:20:46.527Z,7.7
2017-05-15T03:22:05.173Z,7.7
2017-05-15T03:23:23.832Z,7.7
2017-05-15T03:24:42.527Z,7.7
2017-05-15T03:26:01.182Z,7.6
2017-05-15T03:27:19.831Z,7.6
2017-05-15T03:28:38.531Z,7.6
2017-05-15T03:29:57.227Z,7.6
2017-05-15T03:31:15.919Z,7.6
2017-05-15T03:32:34.561Z,7.6
2017-05-15T03:33:53.206Z,7.6
2017-05-15T03:35:11.846Z,7.6
2017-05-15T03:36:30.533Z,7.7
2017-05-15T03:37:49.228Z,7.7
2017-05-15T03:39:07.909Z,7.7
2017-05-15T03:40:26.556Z,7.7
2017-05-15T03:41:45.245Z,7.7
2017-05-15T03:43:03.975Z,7.7
2017-05-15T03:44:22.619Z,7.8
2017-05-15T03:45:41.266Z,7.8
2017-05-15T03:46:59.903Z,7.8
2017-05-15T03:48:18.546Z,7.8
2017-05-15T03:49:37.189Z,7.8
2017-05-15T03:50:55.831Z,7.7
2017-05-15T03:52:14.531Z,7.8
2017-05-15T03:53:33.188Z,7.8
2017-05-15T03:54:51.844Z,7.8
2017-05-15T03:56:10.536Z,7.8
2017-05-15T03:57:29.173Z,7.9
2017-05-15T03:58:47.817Z,8
2017-05-15T04:00:06.472Z,8
2017-05-15T04:01:25.118Z,8.1
2017-05-15T04:02:43.767Z,8.2
2017-05-15T04:04:02.422Z,8.2
2017-05-15T04:05:21.062Z,8.2
2017-05-15T04:06:39.711Z,8.3
2017-05-15T04:07:58.375Z,8.3
2017-05-15T04:09:17.069Z,8.3
2017-05-15T04:10:35.745Z,8.3
2017-05-15T04:11:54.409Z,8.4
2017-05-15T04:13:13.057Z,8.4
2017-05-15T04:14:31.706Z,8.5
2017-05-15T04:15:50.354Z,8.5
2017-05-15T04:17:09.036Z,8.6
2017-05-15T04:18:27.691Z,8.6
2017-05-15T04:19:46.335Z,8.6
2017-05-15T04:21:04.975Z,8.7
2017-05-15T04:22:23.664Z,8.8
2017-05-15T04:23:42.371Z,8.8
2017-05-15T04:25:01.043Z,8.8
2017-05-15T04:26:19.687Z,8.8
2017-05-15T04:27:38.381Z,8.9
2017-05-15T04:28:57.022Z,9
2017-05-15T04:30:15.680Z,9
2017-05-15T04:31:34.329Z,9
2017-05-15T04:32:53.006Z,9
2017-05-15T04:34:11.650Z,9.1
2017-05-15T04:35:30.295Z,9.1
2017-05-15T04:36:48.968Z,9.2
2017-05-15T04:38:07.643Z,9.2
2017-05-15T04:39:26.290Z,9.3
2017-05-15T04:40:44.972Z,9.3
2017-05-15T04:42:03.608Z,9.3
2017-05-15T04:43:22.340Z,9.4
2017-05-15T04:44:40.981Z,9.5
2017-05-15T04:45:59.628Z,9.5
2017-05-15T04:47:18.277Z,9.6
2017-05-15T04:48:36.936Z,9.7
2017-05-15T04:49:55.574Z,9.8
2017-05-15T04:51:14.244Z,9.8
2017-05-15T04:52:32.921Z,9.9
2017-05-15T04:53:51.574Z,9.9
2017-05-15T04:55:10.235Z,10.1
2017-05-15T04:56:28.949Z,10.1
2017-05-15T04:57:47.615Z,10.2
2017-05-15T04:59:06.289Z,10.3
2017-05-15T05:00:24.964Z,10.4
2017-05-15T05:01:43.627Z,10.4
2017-05-15T05:03:02.339Z,10.5
2017-05-15T05:04:21.001Z,10.5
2017-05-15T05:05:39.676Z,10.6
2017-05-15T05:06:58.389Z,10.7
2017-05-15T05:08:17.048Z,10.7
2017-05-15T05:09:35.717Z,10.7
2017-05-15T05:10:54.371Z,10.8
2017-05-15T05:12:13.060Z,10.8
2017-05-15T05:13:31.718Z,10.8
2017-05-15T05:14:50.373Z,10.9
2017-05-15T05:16:09.059Z,10.9
2017-05-15T05:17:27.712Z,10.9
2017-05-15T05:18:46.407Z,10.9
2017-05-15T05:20:05.093Z,10.8
2017-05-15T05:21:23.821Z,10.8
2017-05-15T05:22:42.500Z,10.8
2017-05-15T05:24:01.186Z,10.9
2017-05-15T05:25:19.888Z,10.9
2017-05-15T05:26:38.545Z,11
2017-05-15T05:27:57.236Z,11.1
2017-05-15T05:29:15.912Z,11.2
2017-05-15T05:30:34.613Z,11.2
2017-05-15T05:31:53.302Z,11.3
2017-05-15T05:33:11.964Z,11.4
2017-05-15T05:34:30.638Z,11.4
2017-05-15T05:35:49.303Z,11.5
2017-05-15T05:37:08.000Z,11.6
2017-05-15T05:38:26.657Z,11.7
2017-05-15T05:39:45.346Z,11.7
2017-05-15T05:41:04.085Z,11.8
2017-05-15T05:42:22.788Z,11.8
2017-05-15T05:43:41.445Z,12
2017-05-15T05:45:00.129Z,12.1
2017-05-15T05:46:18.867Z,12.1
2017-05-15T05:47:37.548Z,12.1
2017-05-15T05:48:56.233Z,12.1
2017-05-15T05:50:14.921Z,12.2
2017-05-15T05:51:33.580Z,12.3
2017-05-15T05:52:52.289Z,12.4
2017-05-15T05:54:10.950Z,12.5
2017-05-15T05:55:29.614Z,12.6
2017-05-15T05:56:48.322Z,12.7
2017-05-15T05:58:06.982Z,12.8
2017-05-15T05:59:25.715Z,12.9
2017-05-15T06:00:44.383Z,13
2017-05-15T06:02:03.071Z,13.1
2017-05-15T06:03:21.728Z,13.1
2017-05-15T06:04:40.381Z,13.2
2017-05-15T06:05:59.089Z,13.3
2017-05-15T06:07:17.745Z,13.5
2017-05-15T06:08:36.397Z,13.5
2017-05-15T06:09:55.060Z,13.5
2017-05-15T06:11:13.791Z,13.4
2017-05-15T06:12:32.444Z,13.3
2017-05-15T06:13:51.100Z,13.3
2017-05-15T06:15:09.769Z,13.3
2017-05-15T06:16:28.454Z,13.4
2017-05-15T06:17:47.164Z,13.4
2017-05-15T06:19:05.831Z,13.6
2017-05-15T06:20:24.497Z,13.7
2017-05-15T06:21:43.201Z,13.8
2017-05-15T06:23:01.866Z,14
2017-05-15T06:24:20.553Z,14.4
2017-05-15T06:25:39.212Z,14.6
2017-05-15T06:26:57.923Z,14.7
2017-05-15T06:28:16.594Z,14.8
2017-05-15T06:29:35.312Z,14.8
2017-05-15T06:30:54.075Z,14.7
2017-05-15T06:32:12.749Z,14.4
2017-05-15T06:33:31.457Z,14.1
2017-05-15T06:34:50.169Z,13.9
2017-05-15T06:36:08.910Z,13.7
2017-05-15T06:37:27.603Z,13.7
2017-05-15T06:38:46.269Z,13.8
2017-05-15T06:40:04.993Z,13.9
2017-05-15T06:41:23.676Z,14.1
2017-05-15T06:42:42.384Z,14.2
2017-05-15T06:44:01.094Z,14.4
2017-05-15T06:45:19.753Z,14.4
2017-05-15T06:46:38.444Z,14.5
2017-05-15T06:47:57.103Z,14.6
2017-05-15T06:49:15.771Z,14.8
2017-05-15T06:50:34.429Z,15
2017-05-15T06:51:53.099Z,15
2017-05-15T06:53:11.757Z,15.1
2017-05-15T06:54:30.418Z,15.2
2017-05-15T06:55:49.142Z,15.4
2017-05-15T06:57:07.821Z,15.6
2017-05-15T06:58:26.477Z,15.8
2017-05-15T06:59:45.137Z,15.8
2017-05-15T07:01:03.818Z,15.8
2017-05-15T07:02:22.529Z,15.8
2017-05-15T07:03:41.218Z,15.8
2017-05-15T07:04:59.884Z,15.8
2017-05-15T07:06:18.548Z,15.7
2017-05-15T07:07:37.200Z,15.6
2017-05-15T07:08:55.866Z,15.5
2017-05-15T07:10:14.560Z,15.5
2017-05-15T07:11:33.222Z,15.7
2017-05-15T07:12:51.907Z,15.9
2017-05-15T07:14:10.566Z,16
2017-05-15T07:15:29.223Z,16.1
2017-05-15T07:16:47.910Z,16.3
2017-05-15T07:18:06.596Z,16.6
2017-05-15T07:19:25.313Z,16.9
2017-05-15T07:20:43.998Z,17.1
2017-05-15T07:22:02.659Z,17.3
2017-05-15T07:23:21.314Z,17.3
2017-05-15T07:24:39.973Z,17.5
2017-05-15T07:25:58.626Z,17.6
2017-05-15T07:27:17.341Z,17.8
2017-05-15T07:28:36.003Z,17.8
2017-05-15T07:29:54.660Z,17.7
2017-05-15T07:31:13.318Z,17.9
2017-05-15T07:32:31.982Z,18.4
2017-05-15T07:33:50.662Z,18.7
2017-05-15T07:35:09.326Z,19
2017-05-15T07:36:27.997Z,19.4
2017-05-15T07:37:46.673Z,19.7
2017-05-15T07:39:05.333Z,19.6
2017-05-15T07:40:24.015Z,19.4
2017-05-15T07:41:42.669Z,19.2
2017-05-15T07:43:01.325Z,18.9
2017-05-15T07:44:19.982Z,18.5
2017-05-15T07:45:38.697Z,18.3
2017-05-15T07:46:57.392Z,18.2
2017-05-15T07:48:16.096Z,18.1
2017-05-15T07:49:34.831Z,18
2017-05-15T07:50:53.538Z,18
2017-05-15T07:52:12.205Z,18
2017-05-15T07:53:30.864Z,18.1
2017-05-15T07:54:49.558Z,18.3
2017-05-15T07:56:08.267Z,18.3
2017-05-15T07:57:26.946Z,18.6
2017-05-15T07:58:45.606Z,18.9
2017-05-15T08:00:04.262Z,19.4
2017-05-15T08:01:22.965Z,19.7
2017-05-15T08:02:41.653Z,19.5
2017-05-15T08:04:00.333Z,19.2
2017-05-15T08:05:19.039Z,19
2017-05-15T08:06:37.691Z,18.8
2017-05-15T08:07:56.370Z,19
2017-05-15T08:09:15.021Z,19.1
2017-05-15T08:10:33.678Z,19.1
2017-05-15T08:11:52.389Z,19.1
2017-05-15T08:13:11.109Z,19.2
2017-05-15T08:14:29.765Z,19.2
2017-05-15T08:15:48.483Z,19
2017-05-15T08:17:07.162Z,19
2017-05-15T08:18:25.823Z,19
2017-05-15T08:19:44.485Z,19.3
2017-05-15T08:21:03.176Z,19.5
2017-05-15T08:22:21.842Z,19.7
2017-05-15T08:23:40.557Z,20
2017-05-15T08:24:59.217Z,20.4
2017-05-15T08:26:17.922Z,20.6
2017-05-15T08:27:36.586Z,20.6
2017-05-15T08:28:55.250Z,20.4
2017-05-15T08:30:13.963Z,20.2
2017-05-15T08:31:32.676Z,19.8
2017-05-15T08:32:51.353Z,19.4
2017-05-15T08:34:10.016Z,18.9
2017-05-15T08:35:28.697Z,18.6
2017-05-15T08:36:47.446Z,18.4
2017-05-15T08:38:06.104Z,18.2
2017-05-15T08:39:24.805Z,18.5
2017-05-15T08:40:43.500Z,19.1
2017-05-15T08:42:02.164Z,19.3
2017-05-15T08:43:20.827Z,19.4
2017-05-15T08:44:39.487Z,19.5
2017-05-15T08:45:58.149Z,19.8
2017-05-15T08:47:16.804Z,20.1
2017-05-15T08:48:35.514Z,20.3
2017-05-15T08:49:54.180Z,20.2
2017-05-15T08:51:12.844Z,19.9
2017-05-15T08:52:31.557Z,19.7
2017-05-15T08:53:50.209Z,19.7
2017-05-15T08:55:08.954Z,19.8
2017-05-15T08:56:27.654Z,20
2017-05-15T08:57:46.329Z,20.2
2017-05-15T08:59:04.987Z,20.3
2017-05-15T09:00:23.640Z,20.4
2017-05-15T09:01:42.358Z,20.5
2017-05-15T09:03:01.021Z,20.7
2017-05-15T09:04:19.678Z,20.7
2017-05-15T09:05:38.342Z,20.6
2017-05-15T09:06:57.004Z,20.4
2017-05-15T09:08:15.671Z,20.3
2017-05-15T09:09:34.380Z,20.1
2017-05-15T09:10:53.049Z,19.6
2017-05-15T09:12:11.730Z,19.3
2017-05-15T09:13:30.388Z,19
2017-05-15T09:14:49.069Z,18.7
2017-05-15T09:16:07.779Z,18.4
2017-05-15T09:17:26.438Z,18.2
2017-05-15T09:18:45.132Z,18
2017-05-15T09:20:03.839Z,17.7
2017-05-15T09:21:22.546Z,17.7
2017-05-15T09:22:41.251Z,18
2017-05-15T09:23:59.934Z,18.4
2017-05-15T09:25:18.599Z,18.7
2017-05-15T09:26:37.309Z,18.8
2017-05-15T09:27:55.975Z,18.6
2017-05-15T09:29:14.652Z,18.4
2017-05-15T09:30:33.347Z,18.3
2017-05-15T09:31:52.006Z,18.4
2017-05-15T09:33:10.682Z,18.7
2017-05-15T09:34:29.352Z,19.3
2017-05-15T09:35:48.012Z,19.7
2017-05-15T09:37:06.723Z,19.8
2017-05-15T09:38:25.380Z,19.6
2017-05-15T09:39:44.153Z,19.3
2017-05-15T09:41:02.816Z,19.1
2017-05-15T09:42:21.478Z,19
2017-05-15T09:43:40.175Z,19
2017-05-15T09:44:58.858Z,19
2017-05-15T09:46:17.555Z,19.5
2017-05-15T09:47:36.215Z,20.4
2017-05-15T09:48:54.929Z,21.3
2017-05-15T09:50:13.629Z,21.8
2017-05-15T09:51:32.343Z,21.9
2017-05-15T09:52:51.052Z,21.3
2017-05-15T09:54:09.714Z,20.5
2017-05-15T09:55:28.404Z,19.9
2017-05-15T09:56:47.061Z,19.2
2017-05-15T09:58:05.715Z,18.6
2017-05-15T09:59:24.379Z,18.2
2017-05-15T10:00:43.099Z,17.8
2017-05-15T10:02:01.757Z,17.5
2017-05-15T10:03:20.463Z,17.3
2017-05-15T10:04:39.174Z,17
2017-05-15T10:05:57.837Z,16.8
2017-05-15T10:07:16.545Z,16.6
2017-05-15T10:08:35.210Z,16.6
2017-05-15T10:09:53.940Z,16.6
2017-05-15T10:11:12.601Z,16.5
2017-05-15T10:12:31.268Z,16.5
2017-05-15T10:13:49.930Z,16.4
2017-05-15T10:15:08.592Z,16.3
2017-05-15T10:16:27.306Z,16.3
2017-05-15T10:17:45.963Z,16.4
2017-05-15T10:19:04.642Z,16.5
2017-05-15T10:20:23.295Z,16.7
2017-05-15T10:21:41.963Z,16.9
2017-05-15T10:23:00.614Z,17
2017-05-15T10:24:19.273Z,17.2
2017-05-15T10:25:37.984Z,17.6
2017-05-15T10:26:56.721Z,18.3
2017-05-15T10:28:15.381Z,19.1
2017-05-15T10:29:34.077Z,19.8
2017-05-15T10:30:52.739Z,20.7
2017-05-15T10:32:11.419Z,21.4
2017-05-15T10:33:30.137Z,21.7
2017-05-15T10:34:48.871Z,22
2017-05-15T10:36:07.554Z,22.4
2017-05-15T10:37:26.250Z,22.5
2017-05-15T10:38:44.911Z,22.7
2017-05-15T10:40:03.604Z,22.9
2017-05-15T10:41:22.297Z,22.9
2017-05-15T10:42:40.960Z,23
2017-05-15T10:43:59.635Z,22.9
2017-05-15T10:45:18.297Z,22.6
2017-05-15T10:46:36.956Z,22.4
2017-05-15T10:47:55.615Z,22.2
2017-05-15T10:49:14.272Z,21.8
2017-05-15T10:50:32.931Z,21.7
2017-05-15T10:51:51.629Z,21.8
2017-05-15T10:53:10.312Z,22.1
2017-05-15T10:54:29.004Z,22.5
2017-05-15T10:55:47.660Z,22.9
2017-05-15T10:57:06.319Z,23.2
2017-05-15T10:58:25.004Z,23.4
2017-05-15T10:59:43.662Z,23.5
2017-05-15T11:01:02.387Z,23.9
2017-05-15T11:02:21.075Z,24.1
2017-05-15T11:03:39.727Z,23.9
2017-05-15T11:04:58.388Z,23.9
2017-05-15T11:06:17.039Z,23.9
2017-05-15T11:07:35.703Z,23.8
2017-05-15T11:08:54.361Z,23.8
2017-05-15T11:10:13.017Z,24
2017-05-15T11:11:31.677Z,24.1
2017-05-15T11:12:50.358Z,23.3
2017-05-15T11:14:09.055Z,22.7
2017-05-15T11:15:27.708Z,22.5
2017-05-15T11:16:46.382Z,22.6
2017-05-15T11:18:05.079Z,22.6
2017-05-15T11:19:23.800Z,22.6
2017-05-15T11:20:42.461Z,22.7
2017-05-15T11:22:01.123Z,22.8
2017-05-15T11:23:19.779Z,22.7
2017-05-15T11:24:38.446Z,22.5
2017-05-15T11:25:57.134Z,22.5
2017-05-15T11:27:15.789Z,22.6
2017-05-15T11:28:34.448Z,22.3
2017-05-15T11:29:53.145Z,22
2017-05-15T11:31:11.804Z,22
2017-05-15T11:32:30.503Z,21.9
2017-05-15T11:33:49.162Z,22
2017-05-15T11:35:07.824Z,21.9
2017-05-15T11:36:26.479Z,21.6
2017-05-15T11:37:45.139Z,21.1
2017-05-15T11:39:03.881Z,20.7
2017-05-15T11:40:22.549Z,20.4
2017-05-15T11:41:41.254Z,20
2017-05-15T11:42:59.911Z,19.6
2017-05-15T11:44:18.568Z,19.2
2017-05-15T11:45:37.238Z,19
2017-05-15T11:46:55.937Z,18.8
2017-05-15T11:48:14.592Z,18.7
2017-05-15T11:49:33.294Z,18.6
2017-05-15T11:50:51.949Z,18.5
2017-05-15T11:52:10.608Z,18.5
2017-05-15T11:53:29.294Z,18.5
2017-05-15T11:54:48.005Z,18.6
2017-05-15T11:56:06.663Z,18.6
2017-05-15T11:57:25.351Z,18.6
2017-05-15T11:58:44.041Z,18.8
2017-05-15T12:00:02.703Z,18.8
2017-05-15T12:01:21.389Z,18.9
2017-05-15T12:02:40.045Z,18.8
2017-05-15T12:03:58.696Z,18.9
2017-05-15T12:05:17.437Z,19
2017-05-15T12:06:36.095Z,19.2
2017-05-15T12:07:54.753Z,19.4
2017-05-15T12:09:13.408Z,19.7
2017-05-15T12:10:32.089Z,20.1
2017-05-15T12:11:50.783Z,20.7
2017-05-15T12:13:09.448Z,21.2
2017-05-15T12:14:28.109Z,21.6
2017-05-15T12:15:46.797Z,21.9
2017-05-15T12:17:05.492Z,22.1
2017-05-15T12:18:24.157Z,22.2
2017-05-15T12:19:42.820Z,22.2
2017-05-15T12:21:01.484Z,22.3
2017-05-15T12:22:20.149Z,22.3
2017-05-15T12:23:38.821Z,22.1
2017-05-15T12:24:57.482Z,21.8
2017-05-15T12:26:16.152Z,21.4
2017-05-15T12:27:34.815Z,21.3
2017-05-15T12:28:53.494Z,21.3
2017-05-15T12:30:12.173Z,21.5
2017-05-15T12:31:30.888Z,22
2017-05-15T12:32:49.619Z,24
2017-05-15T12:34:08.330Z,27
2017-05-15T12:35:26.990Z,26.5
2017-05-15T12:36:45.656Z,26.1
2017-05-15T12:38:04.337Z,25.5
2017-05-15T12:39:23.050Z,25.1
2017-05-15T12:40:41.751Z,25.7
2017-05-15T12:42:00.402Z,27.1
2017-05-15T12:43:19.083Z,26.5
2017-05-15T12:44:37.742Z,26.3
2017-05-15T12:45:56.403Z,27.8
2017-05-15T12:47:15.080Z,26.9
2017-05-15T12:48:33.767Z,25.6
2017-05-15T12:49:52.472Z,24.8
2017-05-15T12:51:11.133Z,24.3
2017-05-15T12:52:29.828Z,24.2
2017-05-15T12:53:48.483Z,24.4
2017-05-15T12:55:07.145Z,28.4
2017-05-15T12:56:25.799Z,34.3
2017-05-15T12:57:44.459Z,34.4
2017-05-15T12:59:03.112Z,34.1
2017-05-15T13:00:21.773Z,31.6
2017-05-15T13:01:40.428Z,29.4
2017-05-15T13:02:59.144Z,28
2017-05-15T13:04:17.807Z,27.2
2017-05-15T13:05:36.480Z,27.8
2017-05-15T13:06:55.163Z,32.8
2017-05-15T13:08:13.894Z,34.7
2017-05-15T13:09:32.561Z,35.1
2017-05-15T13:10:51.218Z,35.4
2017-05-15T13:12:09.877Z,35.7
2017-05-15T13:13:28.549Z,35.9
2017-05-15T13:14:47.229Z,36
2017-05-15T13:16:05.888Z,35.9
2017-05-15T13:17:24.597Z,35.7
2017-05-15T13:18:43.284Z,36
2017-05-15T13:20:01.973Z,36
2017-05-15T13:21:20.697Z,35.4
2017-05-15T13:22:39.367Z,34.9
2017-05-15T13:23:58.047Z,34.5
2017-05-15T13:25:16.706Z,33.9
2017-05-15T13:26:35.387Z,32.2
2017-05-15T13:27:54.084Z,30.3
2017-05-15T13:29:12.749Z,29.6
2017-05-15T13:30:31.411Z,29.9
2017-05-15T13:31:50.068Z,30.4
2017-05-15T13:33:08.778Z,30.8
2017-05-15T13:34:27.445Z,34.1
2017-05-15T13:35:46.220Z,35
2017-05-15T13:37:04.925Z,35
2017-05-15T13:38:23.627Z,34.6
2017-05-15T13:39:42.289Z,34.4
2017-05-15T13:41:00.978Z,34.5
2017-05-15T13:42:19.634Z,34.4
2017-05-15T13:43:38.294Z,34.3
2017-05-15T13:44:56.999Z,34.3
2017-05-15T13:46:15.685Z,33.6
2017-05-15T13:47:34.352Z,32.4
2017-05-15T13:48:53.062Z,31.3
2017-05-15T13:50:11.758Z,30.7
2017-05-15T13:51:30.451Z,30.3
2017-05-15T13:52:49.170Z,30.3
2017-05-15T13:54:07.834Z,31.1
2017-05-15T13:55:26.489Z,32.8
2017-05-15T13:56:45.162Z,32.7
2017-05-15T13:58:03.852Z,34.3
2017-05-15T13:59:22.553Z,34.4
2017-05-15T14:00:41.219Z,34.9
2017-05-15T14:01:59.905Z,35.4
2017-05-15T14:03:18.572Z,35.6
2017-05-15T14:04:37.226Z,35.4
2017-05-15T14:05:55.929Z,35.2
2017-05-15T14:07:14.607Z,34.7
2017-05-15T14:08:33.314Z,34.4
2017-05-15T14:09:51.970Z,34.5
2017-05-15T14:11:10.628Z,34.6
2017-05-15T14:12:29.378Z,34.9
2017-05-15T14:13:48.040Z,34.9
2017-05-15T14:15:06.694Z,34.4
2017-05-15T14:16:25.379Z,32.8
2017-05-15T14:17:44.073Z,31.9
2017-05-15T14:19:02.780Z,30.8
2017-05-15T14:20:21.443Z,29.1
2017-05-15T14:21:40.133Z,27.8
2017-05-15T14:22:58.812Z,26.7
2017-05-15T14:24:17.480Z,25.7
2017-05-15T14:25:36.140Z,25.3
2017-05-15T14:26:54.838Z,25.2
2017-05-15T14:28:13.586Z,25.1
2017-05-15T14:29:32.295Z,25.4
2017-05-15T14:30:50.949Z,27.4
2017-05-15T14:32:09.636Z,27.1
2017-05-15T14:33:28.338Z,26.8
2017-05-15T14:34:47.050Z,26.6
2017-05-15T14:36:05.706Z,26.4
2017-05-15T14:37:24.359Z,26.5
2017-05-15T14:38:43.100Z,28
2017-05-15T14:40:01.767Z,27.8
2017-05-15T14:41:20.421Z,28.5
2017-05-15T14:42:39.146Z,32.7
2017-05-15T14:43:57.832Z,31.5
2017-05-15T14:45:16.514Z,30.5
2017-05-15T14:46:35.175Z,29.9
2017-05-15T14:47:53.870Z,28.5
2017-05-15T14:49:12.552Z,27.1
2017-05-15T14:50:31.223Z,26
2017-05-15T14:51:49.945Z,25.3
2017-05-15T14:53:08.604Z,25
2017-05-15T14:54:27.346Z,24.3
2017-05-15T14:55:46.001Z,23.8
2017-05-15T14:57:04.660Z,23.4
2017-05-15T14:58:23.322Z,23
2017-05-15T14:59:41.984Z,22.6
2017-05-15T15:01:00.636Z,22.4
2017-05-15T15:02:19.333Z,22
2017-05-15T15:03:37.988Z,22
2017-05-15T15:04:56.642Z,22.3
2017-05-15T15:06:15.315Z,22.8
2017-05-15T15:07:34.055Z,23.5
2017-05-15T15:08:52.706Z,24.1
2017-05-15T15:10:11.399Z,24.6
2017-05-15T15:11:30.065Z,24.9
2017-05-15T15:12:48.737Z,24.8
2017-05-15T15:14:07.468Z,24.5
2017-05-15T15:15:26.169Z,24.4
2017-05-15T15:16:44.826Z,24.3
2017-05-15T15:18:03.503Z,24
2017-05-15T15:19:22.158Z,23.6
2017-05-15T15:20:40.817Z,23.3
2017-05-15T15:21:59.485Z,23
2017-05-15T15:23:18.146Z,22.8
2017-05-15T15:24:36.830Z,22.5
2017-05-15T15:25:55.515Z,22.2
2017-05-15T15:27:14.175Z,21.9
2017-05-15T15:28:32.844Z,21.8
2017-05-15T15:29:51.548Z,21.8
2017-05-15T15:31:10.209Z,21.8
2017-05-15T15:32:28.891Z,21.8
2017-05-15T15:33:47.553Z,21.7
2017-05-15T15:35:06.245Z,21.5
2017-05-15T15:36:24.907Z,21.3
2017-05-15T15:37:43.556Z,21.2
2017-05-15T15:39:02.222Z,21.2
2017-05-15T15:40:20.880Z,21.3
2017-05-15T15:41:39.591Z,21.4
2017-05-15T15:42:58.246Z,21.5
2017-05-15T15:44:16.905Z,21.6
2017-05-15T15:45:35.594Z,21.9
2017-05-15T15:46:54.277Z,22.2
2017-05-15T15:48:12.979Z,22.4
2017-05-15T15:49:31.636Z,22.5
2017-05-15T15:50:50.361Z,22.7
2017-05-15T15:52:09.099Z,23
2017-05-15T15:53:27.786Z,23.3
2017-05-15T15:54:46.449Z,23.6
2017-05-15T15:56:05.153Z,23.9
2017-05-15T15:57:23.872Z,24.2
2017-05-15T15:58:42.552Z,24.6
2017-05-15T16:00:01.217Z,24.8
2017-05-15T16:01:19.872Z,24.8
2017-05-15T16:02:38.580Z,24.6
2017-05-15T16:03:57.291Z,24
2017-05-15T16:05:15.947Z,23.5
2017-05-15T16:06:34.606Z,23.1
2017-05-15T16:07:53.292Z,22.7
2017-05-15T16:09:11.979Z,22.4
2017-05-15T16:10:30.635Z,22.1
2017-05-15T16:11:49.324Z,22
2017-05-15T16:13:07.998Z,22.1
2017-05-15T16:14:26.678Z,22.3
2017-05-15T16:15:45.333Z,22.7
2017-05-15T16:17:04.030Z,23.2
2017-05-15T16:18:22.740Z,23.8
2017-05-15T16:19:41.396Z,24.9
2017-05-15T16:21:00.056Z,26.5
2017-05-15T16:22:18.782Z,26.7
2017-05-15T16:23:37.492Z,26.4
2017-05-15T16:24:56.186Z,25.8
2017-05-15T16:26:14.848Z,25.1
2017-05-15T16:27:33.548Z,24.6
2017-05-15T16:28:52.218Z,24.6
2017-05-15T16:30:10.888Z,24
2017-05-15T16:31:29.545Z,23.7
2017-05-15T16:32:48.223Z,25
2017-05-15T16:34:06.890Z,28.8
2017-05-15T16:35:25.573Z,30.5
2017-05-15T16:36:44.268Z,29.6
2017-05-15T16:38:02.926Z,29
2017-05-15T16:39:21.588Z,30.1
2017-05-15T16:40:40.251Z,31.5
2017-05-15T16:41:58.962Z,32.3
2017-05-15T16:43:17.672Z,33.1
2017-05-15T16:44:36.360Z,32.8
2017-05-15T16:45:55.012Z,29.6
2017-05-15T16:47:13.695Z,27.4
2017-05-15T16:48:32.404Z,25.8
2017-05-15T16:49:51.064Z,24.5
2017-05-15T16:51:09.721Z,23.6
2017-05-15T16:52:28.393Z,22.9
2017-05-15T16:53:47.056Z,22.3
2017-05-15T16:55:05.751Z,21.7
2017-05-15T16:56:24.463Z,21.2
2017-05-15T16:57:43.131Z,20.9
2017-05-15T16:59:01.783Z,20.7
2017-05-15T17:00:20.451Z,20.7
2017-05-15T17:01:39.156Z,20.6
2017-05-15T17:02:57.814Z,20.5
2017-05-15T17:04:16.475Z,21.1
2017-05-15T17:05:35.140Z,22.8
2017-05-15T17:06:53.812Z,25.9
2017-05-15T17:08:12.529Z,28.4
2017-05-15T17:09:31.262Z,30.6
2017-05-15T17:10:49.932Z,33
2017-05-15T17:12:08.591Z,34.3
2017-05-15T17:13:27.301Z,34.4
2017-05-15T17:14:46.014Z,34.5
2017-05-15T17:16:04.726Z,34.5
2017-05-15T17:17:23.389Z,34.6
2017-05-15T17:18:42.089Z,34.6
2017-05-15T17:20:00.752Z,34.6
2017-05-15T17:21:19.464Z,34.6
2017-05-15T17:22:38.131Z,34.6
2017-05-15T17:23:56.798Z,34.6
2017-05-15T17:25:15.474Z,34.6
2017-05-15T17:26:34.147Z,34.5
2017-05-15T17:27:52.811Z,34.4
2017-05-15T17:29:11.469Z,33.3
2017-05-15T17:30:30.130Z,31.1
2017-05-15T17:31:48.859Z,29
2017-05-15T17:33:07.570Z,27.5
2017-05-15T17:34:26.227Z,26.2
2017-05-15T17:35:44.916Z,25.3
2017-05-15T17:37:03.566Z,24.6
2017-05-15T17:38:22.280Z,23.8
2017-05-15T17:39:40.941Z,23
2017-05-15T17:40:59.606Z,22.4